createdAt,value
2019-01-20T00:00:21.386Z,56.37
2019-01-20T00:05:08.944Z,60.27
2019-01-20T00:09:54.839Z,64.37
2019-01-20T00:14:40.732Z,65.30
2019-01-20T00:19:26.561Z,63.60
2019-01-20T00:24:12.323Z,68.67
2019-01-20T00:28:58.053Z,70.57
2019-01-20T00:33:43.879Z,72.80
2019-01-20T00:38:29.640Z,65.23
2019-01-20T00:43:15.435Z,84.30
2019-01-20T00:48:01.234Z,78.10
2019-01-20T00:52:47.061Z,76.53
2019-01-20T00:57:32.933Z,66.60
2019-01-20T01:02:18.779Z,70.53
2019-01-20T01:07:05.051Z,71.13
2019-01-20T01:11:50.817Z,54.83
2019-01-20T01:16:36.830Z,61.03
2019-01-20T01:21:22.699Z,81.33
2019-01-20T01:26:08.711Z,72.50
2019-01-20T01:30:54.477Z,79.43
2019-01-20T01:35:40.481Z,66.00
2019-01-20T01:40:26.365Z,62.53
2019-01-20T01:45:17.931Z,60.83
2019-01-20T01:50:03.779Z,60.77
2019-01-20T01:54:49.504Z,64.20
2019-01-20T01:59:35.295Z,58.50
2019-01-20T02:04:21.199Z,57.33
2019-01-20T02:09:09.302Z,68.93
2019-01-20T02:13:54.979Z,57.80
2019-01-20T02:18:41.097Z,57.20
2019-01-20T02:23:27.129Z,59.77
2019-01-20T02:28:13.104Z,52.33
2019-01-20T02:32:58.999Z,37.70
2019-01-20T02:37:44.782Z,40.97
2019-01-20T02:42:31.995Z,47.07
2019-01-20T02:47:18.003Z,36.37
2019-01-20T02:52:03.824Z,29.43
2019-01-20T02:56:49.540Z,32.13
2019-01-20T03:01:35.420Z,33.23
2019-01-20T03:06:21.474Z,30.80
2019-01-20T03:11:07.325Z,32.17
2019-01-20T03:15:53.090Z,30.33
2019-01-20T03:20:38.862Z,30.10
2019-01-20T03:25:24.622Z,31.57
2019-01-20T03:30:13.541Z,32.67
2019-01-20T03:34:59.247Z,35.30
2019-01-20T03:39:45.033Z,32.57
2019-01-20T03:44:30.689Z,29.83
2019-01-20T03:49:16.457Z,28.37
2019-01-20T03:54:02.199Z,28.43
2019-01-20T03:58:48.160Z,35.77
2019-01-20T04:03:33.934Z,27.87
2019-01-20T04:08:19.624Z,35.67
2019-01-20T04:13:05.629Z,29.83
2019-01-20T04:17:51.416Z,28.27
2019-01-20T04:22:37.190Z,30.00
2019-01-20T04:27:23.057Z,33.73
2019-01-20T04:32:08.883Z,29.47
2019-01-20T04:36:54.626Z,30.37
2019-01-20T04:41:40.323Z,31.07
2019-01-20T04:46:26.107Z,31.80
2019-01-20T04:51:11.929Z,31.97
2019-01-20T04:55:57.696Z,25.27
2019-01-20T05:00:43.638Z,21.87
2019-01-20T05:05:29.371Z,24.47
2019-01-20T05:10:15.940Z,20.50
2019-01-20T05:15:01.705Z,20.93
2019-01-20T05:19:47.451Z,14.43
2019-01-20T05:24:33.169Z,20.23
2019-01-20T05:29:18.946Z,19.97
2019-01-20T05:34:04.830Z,19.63
2019-01-20T05:38:50.636Z,21.20
2019-01-20T05:43:36.455Z,17.70
2019-01-20T05:48:22.212Z,17.67
2019-01-20T05:53:08.086Z,17.93
2019-01-20T05:57:53.971Z,16.37
2019-01-20T06:02:41.203Z,21.17
2019-01-20T06:07:27.055Z,14.33
2019-01-20T06:12:12.808Z,18.07
2019-01-20T06:16:58.570Z,21.43
2019-01-20T06:21:44.330Z,20.83
2019-01-20T06:26:30.155Z,20.13
2019-01-20T06:31:16.056Z,17.63
2019-01-20T06:36:01.826Z,19.37
2019-01-20T06:40:47.564Z,21.30
2019-01-20T06:45:33.389Z,25.53
2019-01-20T06:50:20.519Z,25.10
2019-01-20T06:55:07.141Z,21.83
2019-01-20T06:59:53.053Z,20.50
2019-01-20T07:04:38.754Z,20.97
2019-01-20T07:09:24.641Z,20.53
2019-01-20T07:14:11.329Z,19.23
2019-01-20T07:18:57.075Z,39.97
2019-01-20T07:23:43.266Z,29.33
2019-01-20T07:28:28.999Z,17.67
2019-01-20T07:33:14.819Z,21.00
2019-01-20T07:38:00.723Z,13.90
2019-01-20T07:42:47.244Z,15.10
2019-01-20T07:47:33.021Z,34.47
2019-01-20T07:52:19.378Z,47.83
2019-01-20T07:57:05.179Z,31.87
2019-01-20T08:01:51.045Z,22.40
2019-01-20T08:06:37.476Z,22.53
2019-01-20T08:11:23.313Z,21.30
2019-01-20T08:16:09.077Z,24.30
2019-01-20T08:20:55.072Z,23.63
2019-01-20T08:25:40.892Z,21.20
2019-01-20T08:30:29.689Z,23.27
2019-01-20T08:35:16.135Z,22.23
2019-01-20T08:40:02.068Z,25.00
2019-01-20T08:44:47.992Z,24.97
2019-01-20T08:49:33.758Z,22.80
2019-01-20T08:54:19.596Z,24.27
2019-01-20T08:59:05.468Z,24.07
2019-01-20T09:03:51.699Z,22.47
2019-01-20T09:08:37.511Z,21.80
2019-01-20T09:13:23.352Z,22.73
2019-01-20T09:18:09.300Z,21.03
2019-01-20T09:22:55.035Z,19.03
2019-01-20T09:27:41.067Z,17.97
2019-01-20T09:32:26.742Z,15.07
2019-01-20T09:37:12.478Z,19.77
2019-01-20T09:41:58.285Z,25.93
2019-01-20T09:46:44.336Z,16.33
2019-01-20T09:51:30.128Z,15.33
2019-01-20T09:56:16.517Z,16.27
2019-01-20T10:01:02.426Z,18.10
2019-01-20T10:05:48.610Z,17.53
2019-01-20T10:10:34.392Z,19.10
2019-01-20T10:15:20.353Z,19.63
2019-01-20T10:20:09.772Z,24.70
2019-01-20T10:24:58.177Z,22.63
2019-01-20T10:29:44.174Z,22.80
2019-01-20T10:34:30.987Z,21.60
2019-01-20T10:39:16.771Z,20.33
2019-01-20T10:44:02.529Z,26.07
2019-01-20T10:48:48.288Z,19.67
2019-01-20T10:53:34.138Z,17.03
2019-01-20T10:58:19.985Z,15.13
2019-01-20T11:03:06.356Z,11.63
2019-01-20T11:07:52.296Z,10.83
2019-01-20T11:12:38.190Z,12.53
2019-01-20T11:17:24.158Z,14.00
2019-01-20T11:22:10.783Z,10.93
2019-01-20T11:26:56.684Z,11.40
2019-01-20T11:31:42.646Z,13.77
2019-01-20T11:36:30.752Z,10.70
2019-01-20T11:41:16.863Z,7.17
2019-01-20T11:46:02.779Z,10.10
2019-01-20T11:50:49.024Z,11.50
2019-01-20T11:55:35.258Z,11.73
2019-01-20T12:00:29.911Z,20.37
2019-01-20T12:05:16.800Z,29.67
2019-01-20T12:10:02.730Z,20.57
2019-01-20T12:14:48.706Z,15.10
2019-01-20T12:19:34.516Z,14.77
2019-01-20T12:24:20.551Z,14.07
2019-01-20T12:29:06.886Z,19.73
2019-01-20T12:33:52.886Z,21.20
2019-01-20T12:38:39.163Z,21.17
2019-01-20T12:43:25.107Z,26.30
2019-01-20T12:48:11.071Z,25.97
2019-01-20T12:52:56.905Z,33.97
2019-01-20T12:58:01.630Z,30.60
2019-01-20T13:02:47.716Z,34.20
2019-01-20T13:07:33.611Z,34.57
2019-01-20T13:12:19.515Z,35.73
2019-01-20T13:17:05.436Z,33.60
2019-01-20T13:21:53.087Z,37.57
2019-01-20T13:26:39.049Z,35.90
2019-01-20T13:31:24.807Z,33.57
2019-01-20T13:36:11.057Z,36.57
2019-01-20T13:41:12.319Z,40.40
2019-01-20T13:45:58.879Z,43.10
2019-01-20T13:50:44.741Z,42.73
2019-01-20T13:55:31.336Z,43.53
2019-01-20T14:00:22.108Z,40.53
2019-01-20T14:05:09.216Z,48.50
2019-01-20T14:09:55.681Z,48.73
2019-01-20T14:14:42.047Z,48.20
2019-01-20T14:19:28.395Z,48.40
2019-01-20T14:24:14.864Z,44.73
2019-01-20T14:29:01.380Z,51.37
2019-01-20T14:33:48.045Z,44.67
2019-01-20T14:38:34.370Z,47.00
2019-01-20T14:43:20.770Z,45.83
2019-01-20T14:48:07.390Z,47.53
2019-01-20T14:52:54.284Z,48.07
2019-01-20T14:57:40.482Z,55.17
2019-01-20T15:02:27.143Z,63.43
2019-01-20T15:07:13.657Z,62.07
2019-01-20T15:12:00.193Z,61.60
2019-01-20T15:16:46.615Z,61.90
2019-01-20T15:21:33.552Z,58.70
2019-01-20T15:26:20.198Z,54.23
2019-01-20T15:31:06.556Z,54.07
2019-01-20T15:35:52.568Z,53.57
2019-01-20T15:40:38.398Z,53.10
2019-01-20T15:45:24.938Z,56.80
2019-01-20T15:50:14.114Z,54.07
2019-01-20T15:55:00.203Z,60.10
2019-01-20T15:59:46.373Z,54.43
2019-01-20T16:04:32.243Z,56.17
2019-01-20T16:09:18.839Z,57.30
2019-01-20T16:14:04.926Z,64.73
2019-01-20T16:18:51.755Z,59.90
2019-01-20T16:23:37.933Z,69.67
2019-01-20T16:28:23.884Z,66.00
2019-01-20T16:33:10.222Z,61.03
2019-01-20T16:37:57.125Z,66.53
2019-01-20T16:42:43.681Z,66.90
2019-01-20T16:47:29.641Z,63.37
2019-01-20T16:52:15.953Z,64.60
2019-01-20T16:57:03.727Z,61.57
2019-01-20T17:01:50.434Z,59.97
2019-01-20T17:06:36.644Z,64.90
2019-01-20T17:11:23.259Z,73.00
2019-01-20T17:16:09.478Z,76.77
2019-01-20T17:20:55.594Z,70.23
2019-01-20T17:25:41.703Z,73.10
2019-01-20T17:30:30.267Z,72.60
2019-01-20T17:35:16.606Z,67.50
2019-01-20T17:40:02.876Z,69.90
2019-01-20T17:44:49.107Z,68.07
2019-01-20T17:49:35.266Z,63.90
2019-01-20T17:54:21.484Z,65.57
2019-01-20T17:59:08.101Z,65.00
2019-01-20T18:03:54.669Z,70.17
2019-01-20T18:08:40.938Z,65.70
2019-01-20T18:13:27.125Z,66.73
2019-01-20T18:18:13.555Z,68.13
2019-01-20T18:22:59.742Z,71.03
2019-01-20T18:27:45.953Z,75.47
2019-01-20T18:32:51.063Z,83.53
2019-01-20T18:37:37.441Z,77.40
2019-01-20T18:42:24.075Z,89.27
2019-01-20T18:47:12.768Z,78.40
2019-01-20T18:51:59.526Z,76.30
2019-01-20T18:56:45.519Z,72.23
2019-01-20T19:01:31.424Z,76.67
2019-01-20T19:06:17.905Z,76.90
2019-01-20T19:11:04.009Z,79.10
2019-01-20T19:15:51.516Z,73.23
2019-01-20T19:20:37.609Z,71.47
2019-01-20T19:25:23.904Z,65.53
2019-01-20T19:30:13.869Z,73.00
2019-01-20T19:34:59.880Z,79.50
2019-01-20T19:39:50.503Z,75.07
2019-01-20T19:44:34.136Z,69.13
2019-01-20T19:49:20.521Z,78.30
2019-01-20T19:54:06.998Z,132.60
2019-01-20T19:58:53.024Z,85.17
2019-01-20T20:03:38.929Z,82.87
2019-01-20T20:08:24.975Z,77.90
2019-01-20T20:13:11.125Z,79.40
2019-01-20T20:17:57.172Z,88.13
2019-01-20T20:22:43.586Z,97.60
2019-01-20T20:27:30.593Z,99.53
2019-01-20T20:32:16.373Z,88.40
2019-01-20T20:37:02.301Z,104.80
2019-01-20T20:41:48.708Z,97.40
2019-01-20T20:46:34.687Z,79.60
2019-01-20T20:51:20.678Z,95.13
2019-01-20T20:56:06.768Z,93.90
2019-01-20T21:00:54.902Z,75.30
2019-01-20T21:05:40.813Z,63.27
2019-01-20T21:10:26.647Z,68.87
2019-01-20T21:15:14.233Z,63.67
2019-01-20T21:20:00.192Z,75.63
2019-01-20T21:24:45.978Z,67.67
2019-01-20T21:29:31.798Z,62.87
2019-01-20T21:34:17.633Z,61.63
2019-01-20T21:39:05.173Z,72.00
2019-01-20T21:43:51.021Z,74.57
2019-01-20T21:48:49.911Z,81.27
2019-01-20T21:53:35.620Z,71.90
2019-01-20T21:58:21.607Z,77.67
2019-01-20T22:03:07.821Z,61.13
2019-01-20T22:07:56.208Z,57.57
2019-01-20T22:12:42.148Z,56.43
2019-01-20T22:17:27.880Z,49.47
2019-01-20T22:22:13.743Z,52.27
2019-01-20T22:26:59.477Z,61.63
2019-01-20T22:31:45.271Z,65.90
2019-01-20T22:36:31.127Z,50.17
2019-01-20T22:41:16.882Z,45.87
2019-01-20T22:46:03.015Z,37.37
2019-01-20T22:50:48.825Z,41.03
2019-01-20T22:55:34.635Z,46.53
2019-01-20T23:00:29.555Z,51.70
2019-01-20T23:05:15.599Z,50.63
2019-01-20T23:10:01.343Z,44.43
2019-01-20T23:14:47.117Z,40.63
2019-01-20T23:19:32.836Z,50.73
2019-01-20T23:24:18.562Z,62.03
2019-01-20T23:29:04.782Z,54.80
2019-01-20T23:33:50.515Z,60.60
2019-01-20T23:38:36.475Z,41.70
2019-01-20T23:43:22.262Z,50.97
2019-01-20T23:48:08.138Z,55.73
2019-01-20T23:52:54.136Z,56.60
2019-01-20T23:57:39.889Z,56.47
